sensor_id;sensor_type;location;lat;lon;timestamp;P1;durP1;ratioP1;P2;durP2;ratioP2
67562;SDS011;54392;53.556;49.214;2022-12-29T00:01:31;7.53;;;6.15;;
67562;SDS011;54392;53.556;49.214;2022-12-29T00:03:58;10.90;;;6.95;;
67562;SDS011;54392;53.556;49.214;2022-12-29T00:11:33;10.23;;;8.07;;
67562;SDS011;54392;53.556;49.214;2022-12-29T00:14:01;9.45;;;5.55;;
67562;SDS011;54392;53.556;49.214;2022-12-29T00:16:46;10.80;;;7.07;;
67562;SDS011;54392;53.556;49.214;2022-12-29T00:19:15;8.68;;;6.07;;
67562;SDS011;54392;53.556;49.214;2022-12-29T00:22:00;8.70;;;5.62;;
67562;SDS011;54392;53.556;49.214;2022-12-29T00:24:45;17.40;;;8.75;;
67562;SDS011;54392;53.556;49.214;2022-12-29T00:27:47;8.43;;;5.23;;
67562;SDS011;54392;53.556;49.214;2022-12-29T00:30:33;18.20;;;6.07;;
67562;SDS011;54392;53.556;49.214;2022-12-29T00:33:26;12.48;;;6.50;;
67562;SDS011;54392;53.556;49.214;2022-12-29T00:38:47;10.35;;;6.28;;
67562;SDS011;54392;53.556;49.214;2022-12-29T00:41:33;13.65;;;7.60;;
67562;SDS011;54392;53.556;49.214;2022-12-29T00:44:18;10.55;;;5.87;;
67562;SDS011;54392;53.556;49.214;2022-12-29T00:46:47;10.30;;;6.82;;
67562;SDS011;54392;53.556;49.214;2022-12-29T00:49:14;10.75;;;6.57;;
67562;SDS011;54392;53.556;49.214;2022-12-29T00:51:56;6.62;;;5.20;;
67562;SDS011;54392;53.556;49.214;2022-12-29T00:54:30;7.20;;;6.50;;
67562;SDS011;54392;53.556;49.214;2022-12-29T00:56:59;15.65;;;6.95;;
67562;SDS011;54392;53.556;49.214;2022-12-29T00:59:29;8.02;;;6.30;;
67562;SDS011;54392;53.556;49.214;2022-12-29T01:01:56;10.45;;;7.07;;
67562;SDS011;54392;53.556;49.214;2022-12-29T01:04:23;9.40;;;6.32;;
67562;SDS011;54392;53.556;49.214;2022-12-29T01:06:53;9.45;;;6.75;;
67562;SDS011;54392;53.556;49.214;2022-12-29T01:09:20;15.48;;;5.87;;
67562;SDS011;54392;53.556;49.214;2022-12-29T01:12:25;9.93;;;6.95;;
67562;SDS011;54392;53.556;49.214;2022-12-29T01:15:11;7.03;;;5.90;;
67562;SDS011;54392;53.556;49.214;2022-12-29T01:17:38;13.55;;;7.00;;
67562;SDS011;54392;53.556;49.214;2022-12-29T01:20:12;8.48;;;5.50;;
67562;SDS011;54392;53.556;49.214;2022-12-29T01:22:41;7.25;;;5.65;;
67562;SDS011;54392;53.556;49.214;2022-12-29T01:25:09;15.45;;;5.70;;
67562;SDS011;54392;53.556;49.214;2022-12-29T01:27:39;11.40;;;6.85;;
67562;SDS011;54392;53.556;49.214;2022-12-29T01:30:13;7.40;;;5.68;;
67562;SDS011;54392;53.556;49.214;2022-12-29T01:32:40;8.55;;;6.35;;
67562;SDS011;54392;53.556;49.214;2022-12-29T01:35:10;9.75;;;6.18;;
67562;SDS011;54392;53.556;49.214;2022-12-29T01:37:39;9.65;;;6.20;;
67562;SDS011;54392;53.556;49.214;2022-12-29T01:40:12;7.82;;;6.87;;
67562;SDS011;54392;53.556;49.214;2022-12-29T01:42:41;10.25;;;5.85;;
67562;SDS011;54392;53.556;49.214;2022-12-29T01:45:15;10.40;;;7.28;;
67562;SDS011;54392;53.556;49.214;2022-12-29T01:47:44;15.93;;;6.37;;
67562;SDS011;54392;53.556;49.214;2022-12-29T01:50:27;10.05;;;6.78;;
67562;SDS011;54392;53.556;49.214;2022-12-29T01:53:04;9.23;;;6.07;;
67562;SDS011;54392;53.556;49.214;2022-12-29T01:56:01;14.27;;;6.87;;
67562;SDS011;54392;53.556;49.214;2022-12-29T01:58:31;10.23;;;6.72;;
67562;SDS011;54392;53.556;49.214;2022-12-29T02:00:59;11.75;;;6.18;;
67562;SDS011;54392;53.556;49.214;2022-12-29T02:03:26;14.65;;;7.15;;
67562;SDS011;54392;53.556;49.214;2022-12-29T02:06:15;11.38;;;5.97;;
67562;SDS011;54392;53.556;49.214;2022-12-29T02:08:54;7.37;;;5.37;;
67562;SDS011;54392;53.556;49.214;2022-12-29T02:11:27;7.22;;;4.95;;
67562;SDS011;54392;53.556;49.214;2022-12-29T02:13:54;10.23;;;7.78;;
67562;SDS011;54392;53.556;49.214;2022-12-29T02:19:01;10.85;;;7.00;;
67562;SDS011;54392;53.556;49.214;2022-12-29T02:29:58;7.15;;;6.22;;
67562;SDS011;54392;53.556;49.214;2022-12-29T02:35:20;10.02;;;5.57;;
67562;SDS011;54392;53.556;49.214;2022-12-29T02:38:20;14.05;;;6.65;;
67562;SDS011;54392;53.556;49.214;2022-12-29T02:41:06;7.18;;;4.22;;
67562;SDS011;54392;53.556;49.214;2022-12-29T02:43:40;10.40;;;6.95;;
67562;SDS011;54392;53.556;49.214;2022-12-29T02:46:19;7.32;;;6.20;;
67562;SDS011;54392;53.556;49.214;2022-12-29T02:48:58;12.25;;;5.57;;
67562;SDS011;54392;53.556;49.214;2022-12-29T02:51:29;15.25;;;6.82;;
67562;SDS011;54392;53.556;49.214;2022-12-29T02:54:22;17.00;;;6.87;;
67562;SDS011;54392;53.556;49.214;2022-12-29T02:59:53;7.07;;;4.62;;
67562;SDS011;54392;53.556;49.214;2022-12-29T03:11:03;7.85;;;5.93;;
67562;SDS011;54392;53.556;49.214;2022-12-29T03:13:57;7.07;;;5.22;;
67562;SDS011;54392;53.556;49.214;2022-12-29T03:17:03;13.65;;;6.75;;
67562;SDS011;54392;53.556;49.214;2022-12-29T03:19:36;16.25;;;5.68;;
67562;SDS011;54392;53.556;49.214;2022-12-29T03:22:14;8.48;;;5.75;;
67562;SDS011;54392;53.556;49.214;2022-12-29T03:27:44;11.10;;;5.65;;
67562;SDS011;54392;53.556;49.214;2022-12-29T03:30:14;11.55;;;5.18;;
67562;SDS011;54392;53.556;49.214;2022-12-29T03:32:45;9.10;;;7.15;;
67562;SDS011;54392;53.556;49.214;2022-12-29T03:35:15;10.55;;;4.40;;
67562;SDS011;54392;53.556;49.214;2022-12-29T03:37:45;9.10;;;4.28;;
67562;SDS011;54392;53.556;49.214;2022-12-29T03:40:16;6.07;;;5.47;;
67562;SDS011;54392;53.556;49.214;2022-12-29T03:42:43;6.28;;;5.53;;
67562;SDS011;54392;53.556;49.214;2022-12-29T03:45:13;7.22;;;6.00;;
67562;SDS011;54392;53.556;49.214;2022-12-29T03:47:39;4.43;;;4.00;;
67562;SDS011;54392;53.556;49.214;2022-12-29T03:50:06;11.27;;;6.32;;
67562;SDS011;54392;53.556;49.214;2022-12-29T03:52:35;6.60;;;5.18;;
67562;SDS011;54392;53.556;49.214;2022-12-29T03:55:05;13.32;;;4.55;;
67562;SDS011;54392;53.556;49.214;2022-12-29T03:57:35;7.68;;;5.62;;
67562;SDS011;54392;53.556;49.214;2022-12-29T04:00:06;12.27;;;7.95;;
67562;SDS011;54392;53.556;49.214;2022-12-29T04:02:36;16.58;;;8.20;;
67562;SDS011;54392;53.556;49.214;2022-12-29T04:05:02;13.88;;;5.90;;
67562;SDS011;54392;53.556;49.214;2022-12-29T04:07:29;20.33;;;8.02;;
67562;SDS011;54392;53.556;49.214;2022-12-29T04:09:58;9.95;;;6.45;;
67562;SDS011;54392;53.556;49.214;2022-12-29T04:12:24;9.10;;;5.25;;
67562;SDS011;54392;53.556;49.214;2022-12-29T04:14:50;12.05;;;7.03;;
67562;SDS011;54392;53.556;49.214;2022-12-29T04:17:17;7.43;;;4.78;;
67562;SDS011;54392;53.556;49.214;2022-12-29T04:19:44;8.40;;;5.15;;
67562;SDS011;54392;53.556;49.214;2022-12-29T04:22:16;7.78;;;5.00;;
67562;SDS011;54392;53.556;49.214;2022-12-29T04:24:42;25.92;;;6.30;;
67562;SDS011;54392;53.556;49.214;2022-12-29T04:27:08;8.77;;;4.85;;
67562;SDS011;54392;53.556;49.214;2022-12-29T04:29:38;8.30;;;5.87;;
67562;SDS011;54392;53.556;49.214;2022-12-29T04:32:08;12.52;;;5.60;;
67562;SDS011;54392;53.556;49.214;2022-12-29T04:34:41;6.60;;;5.12;;
67562;SDS011;54392;53.556;49.214;2022-12-29T04:37:08;14.05;;;5.60;;
67562;SDS011;54392;53.556;49.214;2022-12-29T04:39:36;7.82;;;4.80;;
67562;SDS011;54392;53.556;49.214;2022-12-29T04:42:02;8.80;;;5.25;;
67562;SDS011;54392;53.556;49.214;2022-12-29T04:44:31;13.00;;;6.25;;
67562;SDS011;54392;53.556;49.214;2022-12-29T04:46:57;14.10;;;5.72;;
67562;SDS011;54392;53.556;49.214;2022-12-29T04:49:26;7.53;;;5.15;;
67562;SDS011;54392;53.556;49.214;2022-12-29T04:51:52;10.07;;;5.03;;
67562;SDS011;54392;53.556;49.214;2022-12-29T04:54:19;9.20;;;6.10;;
67562;SDS011;54392;53.556;49.214;2022-12-29T04:56:48;6.90;;;5.03;;
67562;SDS011;54392;53.556;49.214;2022-12-29T04:59:14;5.82;;;5.25;;
67562;SDS011;54392;53.556;49.214;2022-12-29T05:01:42;9.85;;;7.05;;
67562;SDS011;54392;53.556;49.214;2022-12-29T05:04:08;7.62;;;5.97;;
67562;SDS011;54392;53.556;49.214;2022-12-29T05:06:42;6.75;;;5.97;;
67562;SDS011;54392;53.556;49.214;2022-12-29T05:09:09;15.45;;;6.37;;
67562;SDS011;54392;53.556;49.214;2022-12-29T05:11:35;7.15;;;4.40;;
67562;SDS011;54392;53.556;49.214;2022-12-29T05:14:02;9.80;;;6.05;;
67562;SDS011;54392;53.556;49.214;2022-12-29T05:16:28;9.52;;;5.47;;
67562;SDS011;54392;53.556;49.214;2022-12-29T05:18:54;13.35;;;6.07;;
67562;SDS011;54392;53.556;49.214;2022-12-29T05:21:20;8.43;;;5.03;;
67562;SDS011;54392;53.556;49.214;2022-12-29T05:23:49;8.93;;;6.43;;
67562;SDS011;54392;53.556;49.214;2022-12-29T05:26:16;8.48;;;5.82;;
67562;SDS011;54392;53.556;49.214;2022-12-29T05:28:42;10.30;;;7.22;;
67562;SDS011;54392;53.556;49.214;2022-12-29T05:31:08;16.42;;;5.07;;
67562;SDS011;54392;53.556;49.214;2022-12-29T05:33:43;9.23;;;6.40;;
67562;SDS011;54392;53.556;49.214;2022-12-29T05:36:09;7.80;;;5.53;;
67562;SDS011;54392;53.556;49.214;2022-12-29T05:38:39;5.47;;;4.65;;
67562;SDS011;54392;53.556;49.214;2022-12-29T05:43:34;12.48;;;6.75;;
67562;SDS011;54392;53.556;49.214;2022-12-29T05:46:04;10.57;;;4.60;;
67562;SDS011;54392;53.556;49.214;2022-12-29T05:48:30;11.18;;;6.32;;
67562;SDS011;54392;53.556;49.214;2022-12-29T05:50:58;14.87;;;6.12;;
67562;SDS011;54392;53.556;49.214;2022-12-29T05:53:24;7.37;;;4.95;;
67562;SDS011;54392;53.556;49.214;2022-12-29T05:55:54;10.75;;;6.85;;
67562;SDS011;54392;53.556;49.214;2022-12-29T05:58:23;7.03;;;4.78;;
67562;SDS011;54392;53.556;49.214;2022-12-29T06:00:50;7.70;;;5.10;;
67562;SDS011;54392;53.556;49.214;2022-12-29T06:03:16;14.00;;;5.62;;
67562;SDS011;54392;53.556;49.214;2022-12-29T06:05:46;17.98;;;9.15;;
67562;SDS011;54392;53.556;49.214;2022-12-29T06:08:14;9.88;;;7.03;;
67562;SDS011;54392;53.556;49.214;2022-12-29T06:10:49;14.73;;;9.27;;
67562;SDS011;54392;53.556;49.214;2022-12-29T06:13:19;10.25;;;8.50;;
67562;SDS011;54392;53.556;49.214;2022-12-29T06:15:51;9.93;;;7.12;;
67562;SDS011;54392;53.556;49.214;2022-12-29T06:18:22;7.18;;;4.75;;
67562;SDS011;54392;53.556;49.214;2022-12-29T06:20:49;7.22;;;4.87;;
67562;SDS011;54392;53.556;49.214;2022-12-29T06:23:15;7.07;;;6.40;;
67562;SDS011;54392;53.556;49.214;2022-12-29T06:25:43;13.05;;;5.93;;
67562;SDS011;54392;53.556;49.214;2022-12-29T06:28:09;7.87;;;5.25;;
67562;SDS011;54392;53.556;49.214;2022-12-29T06:30:37;13.65;;;6.78;;
67562;SDS011;54392;53.556;49.214;2022-12-29T06:33:09;12.60;;;6.12;;
67562;SDS011;54392;53.556;49.214;2022-12-29T06:35:40;7.50;;;5.25;;
67562;SDS011;54392;53.556;49.214;2022-12-29T06:38:11;7.68;;;4.68;;
67562;SDS011;54392;53.556;49.214;2022-12-29T06:40:37;10.95;;;6.15;;
67562;SDS011;54392;53.556;49.214;2022-12-29T06:43:04;11.25;;;6.72;;
67562;SDS011;54392;53.556;49.214;2022-12-29T06:45:30;7.80;;;5.50;;
67562;SDS011;54392;53.556;49.214;2022-12-29T06:47:56;12.75;;;6.30;;
67562;SDS011;54392;53.556;49.214;2022-12-29T06:52:56;19.35;;;6.62;;
67562;SDS011;54392;53.556;49.214;2022-12-29T06:55:25;6.53;;;5.00;;
67562;SDS011;54392;53.556;49.214;2022-12-29T06:57:53;7.03;;;5.30;;
67562;SDS011;54392;53.556;49.214;2022-12-29T07:00:23;10.07;;;6.28;;
67562;SDS011;54392;53.556;49.214;2022-12-29T07:02:49;12.55;;;5.82;;
67562;SDS011;54392;53.556;49.214;2022-12-29T07:05:15;5.95;;;5.20;;
67562;SDS011;54392;53.556;49.214;2022-12-29T07:07:42;8.02;;;4.70;;
67562;SDS011;54392;53.556;49.214;2022-12-29T07:10:08;8.50;;;5.22;;
67562;SDS011;54392;53.556;49.214;2022-12-29T07:12:37;7.65;;;5.00;;
67562;SDS011;54392;53.556;49.214;2022-12-29T07:15:10;6.68;;;5.60;;
67562;SDS011;54392;53.556;49.214;2022-12-29T07:17:36;6.82;;;4.75;;
67562;SDS011;54392;53.556;49.214;2022-12-29T07:20:18;7.50;;;4.97;;
67562;SDS011;54392;53.556;49.214;2022-12-29T07:22:45;6.12;;;5.28;;
67562;SDS011;54392;53.556;49.214;2022-12-29T07:25:12;6.97;;;5.07;;
67562;SDS011;54392;53.556;49.214;2022-12-29T07:27:47;9.80;;;4.97;;
67562;SDS011;54392;53.556;49.214;2022-12-29T07:30:14;7.07;;;6.20;;
67562;SDS011;54392;53.556;49.214;2022-12-29T07:32:48;9.45;;;6.97;;
67562;SDS011;54392;53.556;49.214;2022-12-29T07:35:14;6.93;;;5.47;;
67562;SDS011;54392;53.556;49.214;2022-12-29T07:37:43;7.45;;;3.72;;
67562;SDS011;54392;53.556;49.214;2022-12-29T07:40:11;7.95;;;5.78;;
67562;SDS011;54392;53.556;49.214;2022-12-29T07:42:38;7.35;;;4.18;;
67562;SDS011;54392;53.556;49.214;2022-12-29T07:45:07;4.53;;;3.92;;
67562;SDS011;54392;53.556;49.214;2022-12-29T07:47:39;8.18;;;5.68;;
67562;SDS011;54392;53.556;49.214;2022-12-29T07:50:08;7.28;;;4.72;;
67562;SDS011;54392;53.556;49.214;2022-12-29T07:52:34;9.60;;;4.90;;
67562;SDS011;54392;53.556;49.214;2022-12-29T07:55:00;8.02;;;4.75;;
67562;SDS011;54392;53.556;49.214;2022-12-29T07:57:26;5.62;;;4.65;;
67562;SDS011;54392;53.556;49.214;2022-12-29T07:59:56;7.07;;;5.75;;
67562;SDS011;54392;53.556;49.214;2022-12-29T08:02:28;12.25;;;6.20;;
67562;SDS011;54392;53.556;49.214;2022-12-29T08:04:55;6.10;;;4.30;;
67562;SDS011;54392;53.556;49.214;2022-12-29T08:07:21;6.70;;;5.22;;
67562;SDS011;54392;53.556;49.214;2022-12-29T08:09:48;8.10;;;5.62;;
67562;SDS011;54392;53.556;49.214;2022-12-29T08:12:14;7.05;;;3.78;;
67562;SDS011;54392;53.556;49.214;2022-12-29T08:14:45;12.65;;;4.65;;
67562;SDS011;54392;53.556;49.214;2022-12-29T08:17:12;9.18;;;4.93;;
67562;SDS011;54392;53.556;49.214;2022-12-29T08:19:38;16.33;;;6.32;;
67562;SDS011;54392;53.556;49.214;2022-12-29T08:22:04;6.70;;;5.65;;
67562;SDS011;54392;53.556;49.214;2022-12-29T08:24:31;9.10;;;3.95;;
67562;SDS011;54392;53.556;49.214;2022-12-29T08:26:59;9.13;;;5.43;;
67562;SDS011;54392;53.556;49.214;2022-12-29T08:29:31;6.37;;;4.00;;
67562;SDS011;54392;53.556;49.214;2022-12-29T08:31:57;7.35;;;4.37;;
67562;SDS011;54392;53.556;49.214;2022-12-29T08:34:23;10.02;;;5.05;;
67562;SDS011;54392;53.556;49.214;2022-12-29T08:36:49;14.43;;;5.07;;
67562;SDS011;54392;53.556;49.214;2022-12-29T08:39:39;8.85;;;5.00;;
67562;SDS011;54392;53.556;49.214;2022-12-29T08:42:06;7.53;;;4.30;;
67562;SDS011;54392;53.556;49.214;2022-12-29T08:44:32;14.15;;;6.95;;
67562;SDS011;54392;53.556;49.214;2022-12-29T08:46:59;7.10;;;4.53;;
67562;SDS011;54392;53.556;49.214;2022-12-29T08:49:27;4.65;;;3.67;;
67562;SDS011;54392;53.556;49.214;2022-12-29T08:51:58;4.37;;;3.15;;
67562;SDS011;54392;53.556;49.214;2022-12-29T08:54:27;8.45;;;3.25;;
67562;SDS011;54392;53.556;49.214;2022-12-29T08:57:00;6.00;;;4.12;;
67562;SDS011;54392;53.556;49.214;2022-12-29T08:59:30;10.73;;;4.37;;
67562;SDS011;54392;53.556;49.214;2022-12-29T09:01:56;3.47;;;3.15;;
67562;SDS011;54392;53.556;49.214;2022-12-29T09:04:22;12.75;;;4.53;;
67562;SDS011;54392;53.556;49.214;2022-12-29T09:06:49;11.65;;;6.12;;
67562;SDS011;54392;53.556;49.214;2022-12-29T09:09:15;9.57;;;4.28;;
67562;SDS011;54392;53.556;49.214;2022-12-29T09:11:49;9.73;;;3.60;;
67562;SDS011;54392;53.556;49.214;2022-12-29T09:14:15;5.00;;;4.53;;
67562;SDS011;54392;53.556;49.214;2022-12-29T09:16:43;5.80;;;5.25;;
67562;SDS011;54392;53.556;49.214;2022-12-29T09:19:28;7.20;;;4.50;;
67562;SDS011;54392;53.556;49.214;2022-12-29T09:21:57;6.62;;;4.10;;
67562;SDS011;54392;53.556;49.214;2022-12-29T09:24:23;6.68;;;3.75;;
67562;SDS011;54392;53.556;49.214;2022-12-29T09:26:50;10.75;;;3.67;;
67562;SDS011;54392;53.556;49.214;2022-12-29T09:29:21;6.40;;;4.90;;
67562;SDS011;54392;53.556;49.214;2022-12-29T09:31:48;7.47;;;4.82;;
67562;SDS011;54392;53.556;49.214;2022-12-29T09:34:14;6.90;;;4.43;;
67562;SDS011;54392;53.556;49.214;2022-12-29T09:36:44;11.40;;;4.62;;
67562;SDS011;54392;53.556;49.214;2022-12-29T09:39:10;8.18;;;3.80;;
67562;SDS011;54392;53.556;49.214;2022-12-29T09:41:41;5.32;;;4.50;;
67562;SDS011;54392;53.556;49.214;2022-12-29T09:47:10;6.53;;;4.00;;
67562;SDS011;54392;53.556;49.214;2022-12-29T09:52:18;10.05;;;4.90;;
67562;SDS011;54392;53.556;49.214;2022-12-29T09:54:57;13.13;;;4.72;;
67562;SDS011;54392;53.556;49.214;2022-12-29T09:57:27;5.37;;;4.25;;
67562;SDS011;54392;53.556;49.214;2022-12-29T10:00:03;6.80;;;4.87;;
67562;SDS011;54392;53.556;49.214;2022-12-29T10:02:39;12.20;;;7.72;;
67562;SDS011;54392;53.556;49.214;2022-12-29T10:05:29;5.57;;;4.05;;
67562;SDS011;54392;53.556;49.214;2022-12-29T10:10:38;4.97;;;4.30;;
67562;SDS011;54392;53.556;49.214;2022-12-29T10:18:37;6.85;;;3.85;;
67562;SDS011;54392;53.556;49.214;2022-12-29T10:23:48;6.00;;;4.43;;
67562;SDS011;54392;53.556;49.214;2022-12-29T10:26:23;8.27;;;4.87;;
67562;SDS011;54392;53.556;49.214;2022-12-29T10:29:02;4.35;;;3.65;;
67562;SDS011;54392;53.556;49.214;2022-12-29T10:31:43;3.28;;;2.97;;
67562;SDS011;54392;53.556;49.214;2022-12-29T10:34:19;9.18;;;4.72;;
67562;SDS011;54392;53.556;49.214;2022-12-29T10:36:50;9.80;;;4.47;;
67562;SDS011;54392;53.556;49.214;2022-12-29T10:42:01;6.15;;;4.82;;
67562;SDS011;54392;53.556;49.214;2022-12-29T10:47:07;11.35;;;7.25;;
67562;SDS011;54392;53.556;49.214;2022-12-29T10:49:42;5.25;;;4.75;;
67562;SDS011;54392;53.556;49.214;2022-12-29T10:52:09;9.10;;;5.70;;
67562;SDS011;54392;53.556;49.214;2022-12-29T10:57:28;5.47;;;4.72;;
67562;SDS011;54392;53.556;49.214;2022-12-29T11:00:00;8.15;;;3.87;;
67562;SDS011;54392;53.556;49.214;2022-12-29T11:05:27;5.37;;;4.32;;
67562;SDS011;54392;53.556;49.214;2022-12-29T11:07:58;4.78;;;4.05;;
67562;SDS011;54392;53.556;49.214;2022-12-29T11:13:13;4.70;;;4.12;;
67562;SDS011;54392;53.556;49.214;2022-12-29T11:15:43;7.50;;;4.97;;
67562;SDS011;54392;53.556;49.214;2022-12-29T11:18:17;8.77;;;5.45;;
67562;SDS011;54392;53.556;49.214;2022-12-29T11:28:39;6.97;;;4.93;;
67562;SDS011;54392;53.556;49.214;2022-12-29T11:31:07;15.05;;;5.97;;
67562;SDS011;54392;53.556;49.214;2022-12-29T11:33:38;6.22;;;5.55;;
67562;SDS011;54392;53.556;49.214;2022-12-29T11:36:17;6.28;;;4.82;;
67562;SDS011;54392;53.556;49.214;2022-12-29T11:38:51;10.85;;;6.47;;
67562;SDS011;54392;53.556;49.214;2022-12-29T11:41:24;6.85;;;4.70;;
67562;SDS011;54392;53.556;49.214;2022-12-29T11:43:52;7.62;;;4.60;;
67562;SDS011;54392;53.556;49.214;2022-12-29T11:46:25;7.28;;;5.07;;
67562;SDS011;54392;53.556;49.214;2022-12-29T11:48:58;7.53;;;6.10;;
67562;SDS011;54392;53.556;49.214;2022-12-29T11:51:33;9.93;;;5.50;;
67562;SDS011;54392;53.556;49.214;2022-12-29T11:54:04;16.37;;;7.10;;
67562;SDS011;54392;53.556;49.214;2022-12-29T12:01:51;8.10;;;5.45;;
67562;SDS011;54392;53.556;49.214;2022-12-29T12:04:24;12.02;;;5.57;;
67562;SDS011;54392;53.556;49.214;2022-12-29T12:09:29;7.28;;;6.15;;
67562;SDS011;54392;53.556;49.214;2022-12-29T12:11:58;7.45;;;4.35;;
67562;SDS011;54392;53.556;49.214;2022-12-29T12:14:33;7.28;;;5.95;;
67562;SDS011;54392;53.556;49.214;2022-12-29T12:17:11;6.72;;;4.72;;
67562;SDS011;54392;53.556;49.214;2022-12-29T12:22:17;12.77;;;8.20;;
67562;SDS011;54392;53.556;49.214;2022-12-29T12:24:58;6.70;;;4.82;;
67562;SDS011;54392;53.556;49.214;2022-12-29T12:27:43;11.12;;;7.95;;
67562;SDS011;54392;53.556;49.214;2022-12-29T12:30:40;11.25;;;7.20;;
67562;SDS011;54392;53.556;49.214;2022-12-29T12:44:28;7.65;;;5.15;;
67562;SDS011;54392;53.556;49.214;2022-12-29T12:55:47;4.97;;;4.35;;
67562;SDS011;54392;53.556;49.214;2022-12-29T12:58:36;9.85;;;5.18;;
67562;SDS011;54392;53.556;49.214;2022-12-29T13:04:51;5.60;;;4.75;;
67562;SDS011;54392;53.556;49.214;2022-12-29T13:07:36;6.18;;;3.92;;
67562;SDS011;54392;53.556;49.214;2022-12-29T13:10:42;10.63;;;6.68;;
67562;SDS011;54392;53.556;49.214;2022-12-29T13:18:59;16.75;;;5.32;;
67562;SDS011;54392;53.556;49.214;2022-12-29T13:21:42;11.02;;;5.12;;
67562;SDS011;54392;53.556;49.214;2022-12-29T13:38:14;9.38;;;5.95;;
67562;SDS011;54392;53.556;49.214;2022-12-29T13:40:45;5.53;;;4.80;;
67562;SDS011;54392;53.556;49.214;2022-12-29T13:43:14;10.80;;;6.45;;
67562;SDS011;54392;53.556;49.214;2022-12-29T13:45:41;10.07;;;5.05;;
67562;SDS011;54392;53.556;49.214;2022-12-29T13:48:17;9.70;;;5.70;;
67562;SDS011;54392;53.556;49.214;2022-12-29T13:50:51;9.82;;;5.30;;
67562;SDS011;54392;53.556;49.214;2022-12-29T13:56:01;13.10;;;6.07;;
67562;SDS011;54392;53.556;49.214;2022-12-29T13:58:35;7.75;;;6.30;;
67562;SDS011;54392;53.556;49.214;2022-12-29T14:01:14;8.68;;;7.82;;
67562;SDS011;54392;53.556;49.214;2022-12-29T14:03:54;13.73;;;7.57;;
67562;SDS011;54392;53.556;49.214;2022-12-29T14:06:22;12.05;;;7.80;;
67562;SDS011;54392;53.556;49.214;2022-12-29T14:08:56;11.38;;;6.78;;
67562;SDS011;54392;53.556;49.214;2022-12-29T14:11:52;13.90;;;7.70;;
67562;SDS011;54392;53.556;49.214;2022-12-29T14:14:22;10.25;;;6.12;;
67562;SDS011;54392;53.556;49.214;2022-12-29T14:16:51;11.38;;;6.53;;
67562;SDS011;54392;53.556;49.214;2022-12-29T14:19:25;15.60;;;6.30;;
67562;SDS011;54392;53.556;49.214;2022-12-29T14:22:02;9.15;;;7.03;;
67562;SDS011;54392;53.556;49.214;2022-12-29T14:27:25;22.70;;;8.02;;
67562;SDS011;54392;53.556;49.214;2022-12-29T14:29:47;16.83;;;8.52;;
67562;SDS011;54392;53.556;49.214;2022-12-29T14:32:35;19.10;;;8.10;;
67562;SDS011;54392;53.556;49.214;2022-12-29T14:35:47;10.30;;;7.87;;
67562;SDS011;54392;53.556;49.214;2022-12-29T14:38:13;11.25;;;6.87;;
67562;SDS011;54392;53.556;49.214;2022-12-29T14:40:44;11.52;;;6.47;;
67562;SDS011;54392;53.556;49.214;2022-12-29T14:43:24;10.15;;;6.35;;
67562;SDS011;54392;53.556;49.214;2022-12-29T14:45:57;9.07;;;5.22;;
67562;SDS011;54392;53.556;49.214;2022-12-29T14:48:36;8.63;;;6.75;;
67562;SDS011;54392;53.556;49.214;2022-12-29T14:51:21;12.70;;;5.30;;
67562;SDS011;54392;53.556;49.214;2022-12-29T14:53:57;6.22;;;4.30;;
67562;SDS011;54392;53.556;49.214;2022-12-29T14:56:25;7.53;;;4.87;;
67562;SDS011;54392;53.556;49.214;2022-12-29T14:58:59;10.77;;;4.70;;
67562;SDS011;54392;53.556;49.214;2022-12-29T15:01:47;10.77;;;5.28;;
67562;SDS011;54392;53.556;49.214;2022-12-29T15:04:25;17.98;;;5.53;;
67562;SDS011;54392;53.556;49.214;2022-12-29T15:06:56;15.10;;;7.05;;
67562;SDS011;54392;53.556;49.214;2022-12-29T15:09:24;7.37;;;5.00;;
67562;SDS011;54392;53.556;49.214;2022-12-29T15:14:52;11.07;;;7.03;;
67562;SDS011;54392;53.556;49.214;2022-12-29T15:17:39;11.40;;;5.50;;
67562;SDS011;54392;53.556;49.214;2022-12-29T15:22:57;11.77;;;5.85;;
67562;SDS011;54392;53.556;49.214;2022-12-29T15:25:29;9.00;;;6.68;;
67562;SDS011;54392;53.556;49.214;2022-12-29T15:28:02;14.60;;;6.75;;
67562;SDS011;54392;53.556;49.214;2022-12-29T15:30:34;5.78;;;4.10;;
67562;SDS011;54392;53.556;49.214;2022-12-29T15:33:00;9.38;;;5.95;;
67562;SDS011;54392;53.556;49.214;2022-12-29T15:35:36;10.05;;;6.12;;
67562;SDS011;54392;53.556;49.214;2022-12-29T15:38:13;14.10;;;5.32;;
67562;SDS011;54392;53.556;49.214;2022-12-29T15:40:51;8.35;;;5.32;;
67562;SDS011;54392;53.556;49.214;2022-12-29T15:43:28;6.93;;;5.15;;
67562;SDS011;54392;53.556;49.214;2022-12-29T15:45:59;14.13;;;5.15;;
67562;SDS011;54392;53.556;49.214;2022-12-29T15:48:26;7.10;;;4.85;;
67562;SDS011;54392;53.556;49.214;2022-12-29T15:50:52;9.77;;;5.07;;
67562;SDS011;54392;53.556;49.214;2022-12-29T15:53:20;12.35;;;5.62;;
67562;SDS011;54392;53.556;49.214;2022-12-29T15:55:52;8.93;;;6.15;;
67562;SDS011;54392;53.556;49.214;2022-12-29T15:58:20;7.75;;;5.28;;
67562;SDS011;54392;53.556;49.214;2022-12-29T16:00:57;11.95;;;6.22;;
67562;SDS011;54392;53.556;49.214;2022-12-29T16:03:25;8.43;;;5.35;;
67562;SDS011;54392;53.556;49.214;2022-12-29T16:05:54;8.10;;;6.10;;
67562;SDS011;54392;53.556;49.214;2022-12-29T16:08:32;8.20;;;6.28;;
67562;SDS011;54392;53.556;49.214;2022-12-29T16:11:03;8.68;;;5.75;;
67562;SDS011;54392;53.556;49.214;2022-12-29T16:13:42;5.43;;;4.22;;
67562;SDS011;54392;53.556;49.214;2022-12-29T16:16:12;9.32;;;6.07;;
67562;SDS011;54392;53.556;49.214;2022-12-29T16:18:39;8.27;;;5.07;;
67562;SDS011;54392;53.556;49.214;2022-12-29T16:21:06;16.00;;;7.22;;
67562;SDS011;54392;53.556;49.214;2022-12-29T16:23:43;10.68;;;6.55;;
67562;SDS011;54392;53.556;49.214;2022-12-29T16:26:16;11.20;;;6.75;;
67562;SDS011;54392;53.556;49.214;2022-12-29T16:28:58;9.05;;;6.32;;
67562;SDS011;54392;53.556;49.214;2022-12-29T16:33:57;6.10;;;5.35;;
67562;SDS011;54392;53.556;49.214;2022-12-29T16:36:28;12.73;;;7.32;;
67562;SDS011;54392;53.556;49.214;2022-12-29T16:39:30;11.85;;;8.38;;
67562;SDS011;54392;53.556;49.214;2022-12-29T16:50:36;10.88;;;7.25;;
67562;SDS011;54392;53.556;49.214;2022-12-29T16:53:03;10.57;;;8.55;;
67562;SDS011;54392;53.556;49.214;2022-12-29T16:55:30;12.35;;;8.23;;
67562;SDS011;54392;53.556;49.214;2022-12-29T16:57:57;13.73;;;10.18;;
67562;SDS011;54392;53.556;49.214;2022-12-29T17:00:29;10.05;;;8.80;;
67562;SDS011;54392;53.556;49.214;2022-12-29T17:03:00;14.18;;;9.93;;
67562;SDS011;54392;53.556;49.214;2022-12-29T17:05:27;14.75;;;9.73;;
67562;SDS011;54392;53.556;49.214;2022-12-29T17:07:56;15.15;;;9.65;;
67562;SDS011;54392;53.556;49.214;2022-12-29T17:10:27;9.43;;;6.72;;
67562;SDS011;54392;53.556;49.214;2022-12-29T17:13:13;11.75;;;9.18;;
67562;SDS011;54392;53.556;49.214;2022-12-29T17:15:45;15.82;;;9.23;;
67562;SDS011;54392;53.556;49.214;2022-12-29T17:18:13;16.02;;;9.57;;
67562;SDS011;54392;53.556;49.214;2022-12-29T17:20:42;12.35;;;10.27;;
67562;SDS011;54392;53.556;49.214;2022-12-29T17:23:15;18.23;;;11.52;;
67562;SDS011;54392;53.556;49.214;2022-12-29T17:25:41;19.30;;;11.80;;
67562;SDS011;54392;53.556;49.214;2022-12-29T17:28:24;14.20;;;9.25;;
67562;SDS011;54392;53.556;49.214;2022-12-29T17:30:52;13.88;;;9.18;;
67562;SDS011;54392;53.556;49.214;2022-12-29T17:33:24;16.42;;;11.90;;